LVFVY SAZS-SADF
Flight info
| Callsign | LVFVY |
|---|---|
| Flight time | N/A |
| Altitude | 37000 |
| Route | LIMAY1C LIMAY UZ109 ISMIL UT655 ASADA DCT TRINI |
| Aircraft | C510/L-SDFGRWYLB1/LB1 |
Departure
| Time | 2026-04-21 16:53 |
|---|---|
| Airport | Teniente Luis Candelaria International Airport (SAZS) |
Arrival
| Time | N/A |
|---|---|
| Airport | San Fernando Airport (SADF) |
| Time | Latitude | Longitude | Altitude | Speed | Heading |
|---|---|---|---|---|---|
| 2026-04-21 16:45 | -41.14723 | -71.16335 | 2777 ft | 0 kts | 294° |
| 2026-04-21 16:49 | -41.14724 | -71.16338 | 2777 ft | 1 kts | 237° |
| 2026-04-21 16:49 | -41.14748 | -71.16309 | 2777 ft | 9 kts | 134° |
| 2026-04-21 16:49 | -41.14810 | -71.16201 | 2776 ft | 18 kts | 114° |
| 2026-04-21 16:49 | -41.14855 | -71.16072 | 2777 ft | 12 kts | 114° |
| 2026-04-21 16:50 | -41.14898 | -71.15948 | 2777 ft | 18 kts | 117° |
| 2026-04-21 16:50 | -41.14965 | -71.15755 | 2777 ft | 27 kts | 115° |
| 2026-04-21 16:50 | -41.15047 | -71.15520 | 2777 ft | 27 kts | 114° |
| 2026-04-21 16:50 | -41.15121 | -71.15307 | 2777 ft | 24 kts | 113° |
| 2026-04-21 16:51 | -41.15195 | -71.15094 | 2777 ft | 26 kts | 115° |
| 2026-04-21 16:51 | -41.15251 | -71.14932 | 2777 ft | 10 kts | 113° |
| 2026-04-21 16:51 | -41.15288 | -71.14825 | 2777 ft | 17 kts | 115° |
| 2026-04-21 16:51 | -41.15365 | -71.14614 | 2777 ft | 32 kts | 126° |
| 2026-04-21 16:52 | -41.15497 | -71.14503 | 2777 ft | 19 kts | 204° |
| 2026-04-21 16:52 | -41.15515 | -71.14612 | 2777 ft | 29 kts | 297° |
| 2026-04-21 16:52 | -41.15339 | -71.15120 | 2777 ft | 90 kts | 292° |
| 2026-04-21 16:52 | -41.15026 | -71.16015 | 3125 ft | 118 kts | 295° |
| 2026-04-21 16:53 | -41.14687 | -71.17007 | 3947 ft | 118 kts | 294° |
| 2026-04-21 16:53 | -41.14383 | -71.17864 | 4881 ft | 103 kts | 294° |
| 2026-04-21 16:53 | -41.14081 | -71.18680 | 5558 ft | 103 kts | 294° |
| 2026-04-21 16:53 | -41.13770 | -71.19517 | 6122 ft | 104 kts | 292° |
| 2026-04-21 16:54 | -41.13473 | -71.20403 | 6657 ft | 109 kts | 291° |
| 2026-04-21 16:54 | -41.13168 | -71.21323 | 7177 ft | 115 kts | 291° |
| 2026-04-21 16:54 | -41.12806 | -71.22430 | 7462 ft | 145 kts | 291° |
| 2026-04-21 16:54 | -41.12378 | -71.23728 | 7981 ft | 160 kts | 291° |
| 2026-04-21 16:55 | -41.11927 | -71.25079 | 8679 ft | 163 kts | 291° |
| 2026-04-21 16:55 | -41.11464 | -71.26462 | 9397 ft | 164 kts | 291° |
| 2026-04-21 16:55 | -41.10994 | -71.27866 | 10083 ft | 167 kts | 291° |
| 2026-04-21 16:55 | -41.10395 | -71.29201 | 10733 ft | 174 kts | 316° |
| 2026-04-21 16:56 | -41.09246 | -71.29720 | 11359 ft | 184 kts | 2° |
| 2026-04-21 16:56 | -41.08088 | -71.29009 | 11991 ft | 188 kts | 48° |
| 2026-04-21 16:56 | -41.07546 | -71.27389 | 12421 ft | 200 kts | 83° |
| 2026-04-21 16:56 | -41.07323 | -71.25496 | 12892 ft | 213 kts | 78° |
| 2026-04-21 16:57 | -41.06624 | -71.23736 | 13510 ft | 219 kts | 56° |
| 2026-04-21 16:57 | -41.05731 | -71.22089 | 14163 ft | 220 kts | 55° |
| 2026-04-21 16:57 | -41.04779 | -71.20370 | 14498 ft | 238 kts | 55° |
| 2026-04-21 16:57 | -41.03744 | -71.18502 | 14717 ft | 258 kts | 55° |
| 2026-04-21 16:58 | -41.02641 | -71.16517 | 15206 ft | 264 kts | 56° |
| 2026-04-21 16:58 | -41.01541 | -71.14542 | 15801 ft | 264 kts | 56° |
| 2026-04-21 16:58 | -41.00425 | -71.12538 | 16379 ft | 266 kts | 56° |
| 2026-04-21 16:58 | -40.99307 | -71.10530 | 16918 ft | 268 kts | 57° |
| 2026-04-21 16:59 | -40.98170 | -71.08491 | 17442 ft | 270 kts | 57° |
| 2026-04-21 16:59 | -40.97051 | -71.06484 | 17949 ft | 272 kts | 57° |
| 2026-04-21 16:59 | -40.95900 | -71.04418 | 18455 ft | 274 kts | 57° |
| 2026-04-21 16:59 | -40.94764 | -71.02382 | 18948 ft | 276 kts | 58° |
| 2026-04-21 17:00 | -40.93618 | -71.00331 | 19475 ft | 275 kts | 58° |
| 2026-04-21 17:00 | -40.92467 | -70.98270 | 19997 ft | 275 kts | 58° |
| 2026-04-21 17:00 | -40.91719 | -70.96933 | 20325 ft | 275 kts | 58° |
| 2026-04-21 17:00 | -40.90192 | -70.94200 | 20973 ft | 275 kts | 58° |
| 2026-04-21 17:01 | -40.89047 | -70.92151 | 21437 ft | 275 kts | 59° |
| 2026-04-21 17:01 | -40.87888 | -70.90080 | 21894 ft | 275 kts | 59° |
| 2026-04-21 17:01 | -40.86744 | -70.88037 | 22333 ft | 275 kts | 59° |
| 2026-04-21 17:01 | -40.85583 | -70.85965 | 22765 ft | 275 kts | 59° |
| 2026-04-21 17:02 | -40.84438 | -70.83923 | 23181 ft | 275 kts | 59° |
| 2026-04-21 17:02 | -40.83273 | -70.81847 | 23591 ft | 275 kts | 59° |
| 2026-04-21 17:02 | -40.82130 | -70.79813 | 23981 ft | 276 kts | 59° |
| 2026-04-21 17:02 | -40.80962 | -70.77741 | 24331 ft | 278 kts | 59° |
| 2026-04-21 17:03 | -40.79772 | -70.75629 | 24640 ft | 281 kts | 59° |
| 2026-04-21 17:03 | -40.78586 | -70.73526 | 24943 ft | 284 kts | 59° |
| 2026-04-21 17:03 | -40.77378 | -70.71384 | 25249 ft | 286 kts | 59° |
| 2026-04-21 17:03 | -40.76163 | -70.69231 | 25548 ft | 289 kts | 59° |
| 2026-04-21 17:04 | -40.74952 | -70.67086 | 25833 ft | 291 kts | 59° |
| 2026-04-21 17:04 | -40.73714 | -70.64894 | 26115 ft | 294 kts | 59° |
| 2026-04-21 17:04 | -40.72467 | -70.62686 | 26389 ft | 296 kts | 60° |
| 2026-04-21 17:04 | -40.71223 | -70.60487 | 26654 ft | 299 kts | 60° |
| 2026-04-21 17:05 | -40.69962 | -70.58259 | 26913 ft | 301 kts | 60° |
| 2026-04-21 17:05 | -40.68686 | -70.56004 | 27168 ft | 304 kts | 60° |
| 2026-04-21 17:05 | -40.67401 | -70.53737 | 27416 ft | 306 kts | 60° |
| 2026-04-21 17:05 | -40.66105 | -70.51453 | 27658 ft | 309 kts | 60° |
| 2026-04-21 17:06 | -40.64798 | -70.49149 | 27895 ft | 311 kts | 60° |
| 2026-04-21 17:06 | -40.63472 | -70.46814 | 28128 ft | 314 kts | 60° |
| 2026-04-21 17:06 | -40.62140 | -70.44473 | 28354 ft | 316 kts | 60° |
| 2026-04-21 17:06 | -40.60818 | -70.42148 | 28572 ft | 319 kts | 60° |
| 2026-04-21 17:07 | -40.59909 | -70.40552 | 28718 ft | 320 kts | 60° |
| 2026-04-21 17:07 | -40.58084 | -70.37347 | 29004 ft | 323 kts | 60° |
| 2026-04-21 17:07 | -40.56723 | -70.34960 | 29209 ft | 326 kts | 59° |
| 2026-04-21 17:07 | -40.55328 | -70.32515 | 29406 ft | 328 kts | 59° |
| 2026-04-21 17:08 | -40.53949 | -70.30100 | 29604 ft | 331 kts | 59° |
| 2026-04-21 17:08 | -40.52541 | -70.27639 | 29803 ft | 333 kts | 59° |
| 2026-04-21 17:08 | -40.51142 | -70.25192 | 29995 ft | 335 kts | 59° |
| 2026-04-21 17:08 | -40.49713 | -70.22697 | 30185 ft | 337 kts | 59° |
| 2026-04-21 17:09 | -40.46823 | -70.17655 | 30552 ft | 341 kts | 59° |
| 2026-04-21 17:09 | -40.45387 | -70.15153 | 30730 ft | 343 kts | 59° |
| 2026-04-21 17:09 | -40.43917 | -70.12593 | 30906 ft | 345 kts | 59° |
| 2026-04-21 17:10 | -40.42473 | -70.10081 | 31074 ft | 347 kts | 59° |
| 2026-04-21 17:10 | -40.40996 | -70.07514 | 31243 ft | 349 kts | 59° |
| 2026-04-21 17:10 | -40.39514 | -70.04940 | 31409 ft | 351 kts | 58° |
| 2026-04-21 17:10 | -40.38028 | -70.02361 | 31569 ft | 353 kts | 58° |
| 2026-04-21 17:11 | -40.36505 | -69.99721 | 31731 ft | 355 kts | 58° |
| 2026-04-21 17:11 | -40.35013 | -69.97137 | 31887 ft | 357 kts | 58° |
| 2026-04-21 17:11 | -40.33499 | -69.94514 | 32021 ft | 359 kts | 58° |
| 2026-04-21 17:11 | -40.31973 | -69.91874 | 32147 ft | 362 kts | 58° |
| 2026-04-21 17:12 | -40.30445 | -69.89235 | 32298 ft | 363 kts | 58° |
| 2026-04-21 17:12 | -40.28913 | -69.86591 | 32449 ft | 365 kts | 58° |
| 2026-04-21 17:12 | -40.27335 | -69.83870 | 32596 ft | 367 kts | 58° |
| 2026-04-21 17:12 | -40.25774 | -69.81180 | 32735 ft | 368 kts | 58° |
| 2026-04-21 17:13 | -40.24203 | -69.78474 | 32874 ft | 370 kts | 57° |
| 2026-04-21 17:13 | -40.22618 | -69.75748 | 33013 ft | 371 kts | 57° |
| 2026-04-21 17:13 | -40.21052 | -69.73055 | 33146 ft | 373 kts | 57° |
| 2026-04-21 17:13 | -40.19456 | -69.70314 | 33279 ft | 374 kts | 57° |
| 2026-04-21 17:14 | -40.17845 | -69.67551 | 33410 ft | 376 kts | 57° |
| 2026-04-21 17:14 | -40.16242 | -69.64803 | 33541 ft | 377 kts | 57° |
| 2026-04-21 17:14 | -40.14637 | -69.62053 | 33668 ft | 379 kts | 57° |
| 2026-04-21 17:14 | -40.12998 | -69.59249 | 33795 ft | 380 kts | 57° |
| 2026-04-21 17:15 | -40.11381 | -69.56484 | 33917 ft | 382 kts | 57° |
| 2026-04-21 17:15 | -40.09734 | -69.53670 | 34043 ft | 383 kts | 56° |
| 2026-04-21 17:15 | -40.08100 | -69.50884 | 34180 ft | 384 kts | 56° |
| 2026-04-21 17:15 | -40.06434 | -69.48046 | 34324 ft | 384 kts | 56° |
| 2026-04-21 17:16 | -40.04802 | -69.45267 | 34459 ft | 385 kts | 56° |
| 2026-04-21 17:16 | -40.03148 | -69.42451 | 34589 ft | 386 kts | 56° |
| 2026-04-21 17:16 | -40.01472 | -69.39603 | 34720 ft | 386 kts | 56° |
| 2026-04-21 17:16 | -39.99797 | -69.36757 | 34850 ft | 387 kts | 56° |
| 2026-04-21 17:17 | -39.98119 | -69.33907 | 34972 ft | 388 kts | 56° |
| 2026-04-21 17:17 | -39.96441 | -69.31062 | 35081 ft | 389 kts | 56° |
| 2026-04-21 17:17 | -39.94775 | -69.28238 | 35195 ft | 389 kts | 56° |
| 2026-04-21 17:17 | -39.93083 | -69.25375 | 35312 ft | 390 kts | 56° |
| 2026-04-21 17:18 | -39.91419 | -69.22561 | 35425 ft | 391 kts | 56° |
| 2026-04-21 17:18 | -39.89706 | -69.19666 | 35534 ft | 391 kts | 56° |
| 2026-04-21 17:18 | -39.86170 | -69.13699 | 35720 ft | 392 kts | 56° |
| 2026-04-21 17:19 | -39.82768 | -69.07979 | 35893 ft | 394 kts | 56° |
| 2026-04-21 17:19 | -39.79373 | -69.02282 | 36063 ft | 394 kts | 57° |
| 2026-04-21 17:20 | -39.75957 | -68.96555 | 36239 ft | 395 kts | 58° |
| 2026-04-21 17:20 | -39.72523 | -68.90806 | 36417 ft | 395 kts | 58° |
| 2026-04-21 17:21 | -39.69119 | -68.85107 | 36590 ft | 395 kts | 59° |
| 2026-04-21 17:21 | -39.65700 | -68.79388 | 36712 ft | 396 kts | 59° |
| 2026-04-21 17:22 | -39.62255 | -68.73640 | 36838 ft | 397 kts | 59° |
| 2026-04-21 17:22 | -39.58816 | -68.67918 | 36958 ft | 398 kts | 59° |
| 2026-04-21 17:23 | -39.55365 | -68.62188 | 37076 ft | 399 kts | 59° |
| 2026-04-21 17:23 | -39.51888 | -68.56425 | 37129 ft | 402 kts | 59° |
| 2026-04-21 17:24 | -39.48384 | -68.50629 | 37130 ft | 405 kts | 59° |
| 2026-04-21 17:24 | -39.44833 | -68.44765 | 37130 ft | 408 kts | 59° |
| 2026-04-21 17:25 | -39.41279 | -68.38908 | 37130 ft | 410 kts | 59° |
| 2026-04-21 17:25 | -39.37700 | -68.33019 | 37129 ft | 412 kts | 58° |
| 2026-04-21 17:26 | -39.34105 | -68.27117 | 37130 ft | 413 kts | 58° |
| 2026-04-21 17:26 | -39.30524 | -68.21245 | 37130 ft | 414 kts | 58° |
| 2026-04-21 17:27 | -39.26881 | -68.15288 | 37131 ft | 415 kts | 58° |
| 2026-04-21 17:27 | -39.23260 | -68.09380 | 37128 ft | 409 kts | 58° |
| 2026-04-21 17:28 | -39.19714 | -68.03603 | 37130 ft | 403 kts | 58° |
| 2026-04-21 17:28 | -39.16184 | -67.97862 | 37131 ft | 399 kts | 58° |
| 2026-04-21 17:29 | -39.12673 | -67.92160 | 37132 ft | 396 kts | 58° |
| 2026-04-21 17:29 | -39.09224 | -67.86568 | 37133 ft | 394 kts | 58° |
| 2026-04-21 17:30 | -39.05748 | -67.80942 | 37134 ft | 392 kts | 58° |
| 2026-04-21 17:30 | -39.02298 | -67.75370 | 37135 ft | 391 kts | 58° |
| 2026-04-21 17:31 | -38.98855 | -67.69821 | 37135 ft | 390 kts | 58° |
| 2026-04-21 17:31 | -38.95439 | -67.64323 | 37136 ft | 389 kts | 58° |
| 2026-04-21 17:32 | -38.92008 | -67.58809 | 37137 ft | 389 kts | 59° |
| 2026-04-21 17:32 | -38.88575 | -67.53304 | 37121 ft | 389 kts | 59° |
| 2026-04-21 17:33 | -38.85159 | -67.47829 | 37121 ft | 387 kts | 59° |
| 2026-04-21 17:33 | -38.81762 | -67.42396 | 37121 ft | 386 kts | 59° |
| 2026-04-21 17:34 | -38.78348 | -67.36948 | 37123 ft | 385 kts | 59° |
| 2026-04-21 17:34 | -38.74953 | -67.31534 | 37123 ft | 385 kts | 58° |
| 2026-04-21 17:35 | -38.71556 | -67.26131 | 37123 ft | 384 kts | 58° |
| 2026-04-21 17:35 | -38.68173 | -67.20758 | 37124 ft | 384 kts | 58° |
| 2026-04-21 17:36 | -38.64775 | -67.15359 | 37126 ft | 384 kts | 58° |
| 2026-04-21 17:36 | -38.61384 | -67.09982 | 37126 ft | 383 kts | 57° |
| 2026-04-21 17:37 | -38.58008 | -67.04643 | 37127 ft | 381 kts | 56° |
| 2026-04-21 17:37 | -38.54535 | -66.99164 | 37128 ft | 379 kts | 56° |
| 2026-04-21 17:38 | -38.51161 | -66.93855 | 37127 ft | 377 kts | 55° |
| 2026-04-21 17:38 | -38.47811 | -66.88601 | 37127 ft | 376 kts | 55° |
| 2026-04-21 17:39 | -38.44483 | -66.83384 | 37128 ft | 374 kts | 55° |
| 2026-04-21 17:39 | -38.41083 | -66.78058 | 37128 ft | 373 kts | 55° |
| 2026-04-21 17:40 | -38.37735 | -66.72822 | 37129 ft | 372 kts | 55° |
| 2026-04-21 17:40 | -38.34410 | -66.67629 | 37129 ft | 372 kts | 55° |
| 2026-04-21 17:41 | -38.33001 | -66.64844 | 37130 ft | 365 kts | 67° |
| 2026-04-21 17:41 | -38.31778 | -66.61948 | 37132 ft | 365 kts | 67° |
| 2026-04-21 17:41 | -38.29363 | -66.56187 | 37129 ft | 365 kts | 67° |
| 2026-04-21 17:42 | -38.26934 | -66.50400 | 37131 ft | 365 kts | 67° |
| 2026-04-21 17:42 | -38.24511 | -66.44655 | 37131 ft | 365 kts | 67° |
| 2026-04-21 17:43 | -38.22061 | -66.38863 | 37131 ft | 365 kts | 67° |
| 2026-04-21 17:43 | -38.19611 | -66.33078 | 37130 ft | 365 kts | 66° |
| 2026-04-21 17:44 | -38.17123 | -66.27221 | 37131 ft | 366 kts | 66° |
| 2026-04-21 17:44 | -38.14681 | -66.21481 | 37132 ft | 366 kts | 66° |
| 2026-04-21 17:45 | -38.12535 | -66.16446 | 37136 ft | 366 kts | 66° |
| 2026-04-21 17:45 | -38.10057 | -66.10642 | 37143 ft | 366 kts | 66° |
| 2026-04-21 17:46 | -38.07575 | -66.04838 | 37151 ft | 366 kts | 66° |
| 2026-04-21 17:46 | -38.05095 | -65.99051 | 37159 ft | 366 kts | 66° |
| 2026-04-21 17:47 | -38.02629 | -65.93306 | 37160 ft | 366 kts | 66° |
| 2026-04-21 17:47 | -38.00142 | -65.87522 | 37160 ft | 366 kts | 66° |
| 2026-04-21 17:48 | -37.97675 | -65.81795 | 37160 ft | 366 kts | 66° |
| 2026-04-21 17:48 | -37.95197 | -65.76054 | 37161 ft | 366 kts | 66° |
| 2026-04-21 17:49 | -37.92699 | -65.70277 | 37161 ft | 367 kts | 66° |
| 2026-04-21 17:49 | -37.90210 | -65.64529 | 37161 ft | 367 kts | 66° |
| 2026-04-21 17:50 | -37.87649 | -65.58627 | 37151 ft | 366 kts | 66° |
| 2026-04-21 17:50 | -37.85174 | -65.52934 | 37151 ft | 366 kts | 66° |
| 2026-04-21 17:51 | -37.82679 | -65.47208 | 37152 ft | 365 kts | 66° |
| 2026-04-21 17:51 | -37.80195 | -65.41512 | 37152 ft | 365 kts | 66° |
| 2026-04-21 17:52 | -37.77710 | -65.35827 | 37152 ft | 364 kts | 66° |
| 2026-04-21 17:52 | -37.75229 | -65.30157 | 37152 ft | 364 kts | 66° |
| 2026-04-21 17:53 | -37.72730 | -65.24460 | 37152 ft | 364 kts | 66° |
| 2026-04-21 17:53 | -37.70232 | -65.18775 | 37152 ft | 364 kts | 66° |
| 2026-04-21 17:54 | -37.67742 | -65.13119 | 37153 ft | 364 kts | 66° |
| 2026-04-21 17:54 | -37.65257 | -65.07482 | 37153 ft | 364 kts | 66° |
| 2026-04-21 17:55 | -37.62754 | -65.01807 | 37153 ft | 364 kts | 66° |
| 2026-04-21 17:55 | -37.60293 | -64.96169 | 37154 ft | 364 kts | 65° |
| 2026-04-21 17:56 | -37.57806 | -64.90497 | 37155 ft | 364 kts | 64° |
| 2026-04-21 17:56 | -37.55306 | -64.84844 | 37156 ft | 364 kts | 63° |
| 2026-04-21 17:57 | -37.52818 | -64.79246 | 37156 ft | 363 kts | 62° |
| 2026-04-21 17:57 | -37.50278 | -64.73601 | 37155 ft | 361 kts | 62° |
| 2026-04-21 17:58 | -37.47768 | -64.68031 | 37155 ft | 361 kts | 62° |
| 2026-04-21 17:58 | -37.45247 | -64.62420 | 37155 ft | 360 kts | 62° |
| 2026-04-21 17:59 | -37.42762 | -64.56883 | 37156 ft | 360 kts | 62° |
| 2026-04-21 17:59 | -37.40261 | -64.51315 | 37156 ft | 359 kts | 62° |
| 2026-04-21 18:00 | -37.37767 | -64.45767 | 37156 ft | 359 kts | 62° |
| 2026-04-21 18:00 | -37.35267 | -64.40214 | 37156 ft | 359 kts | 62° |
| 2026-04-21 18:01 | -37.32752 | -64.34669 | 37156 ft | 359 kts | 61° |
| 2026-04-21 18:01 | -37.30077 | -64.28814 | 37155 ft | 359 kts | 60° |
| 2026-04-21 18:02 | -37.27551 | -64.23298 | 37155 ft | 358 kts | 61° |
| 2026-04-21 18:02 | -37.25026 | -64.17791 | 37155 ft | 358 kts | 61° |
| 2026-04-21 18:03 | -37.22499 | -64.12287 | 37155 ft | 358 kts | 60° |
| 2026-04-21 18:03 | -37.19982 | -64.06816 | 37156 ft | 358 kts | 62° |
| 2026-04-21 18:04 | -37.17456 | -64.01332 | 37155 ft | 358 kts | 61° |
| 2026-04-21 18:04 | -37.14911 | -63.95810 | 37156 ft | 358 kts | 61° |
| 2026-04-21 18:05 | -37.12380 | -63.90335 | 37156 ft | 358 kts | 60° |
| 2026-04-21 18:05 | -37.09834 | -63.84832 | 37155 ft | 359 kts | 60° |
| 2026-04-21 18:06 | -37.07296 | -63.79343 | 37156 ft | 360 kts | 60° |
| 2026-04-21 18:06 | -37.04748 | -63.73837 | 37157 ft | 361 kts | 60° |
| 2026-04-21 18:07 | -37.02197 | -63.68332 | 37157 ft | 363 kts | 59° |
| 2026-04-21 18:07 | -36.99637 | -63.62814 | 37158 ft | 365 kts | 58° |
| 2026-04-21 18:08 | -36.97062 | -63.57279 | 37158 ft | 367 kts | 58° |
| 2026-04-21 18:08 | -36.94419 | -63.51630 | 37159 ft | 369 kts | 57° |
| 2026-04-21 18:09 | -36.91811 | -63.46108 | 37159 ft | 370 kts | 57° |
| 2026-04-21 18:09 | -36.89145 | -63.40458 | 37159 ft | 371 kts | 57° |
| 2026-04-21 18:10 | -36.86492 | -63.34827 | 37159 ft | 372 kts | 57° |
| 2026-04-21 18:10 | -36.83854 | -63.29228 | 37153 ft | 372 kts | 57° |
| 2026-04-21 18:11 | -36.81195 | -63.23594 | 37153 ft | 372 kts | 57° |
| 2026-04-21 18:11 | -36.78567 | -63.18033 | 37153 ft | 372 kts | 57° |
| 2026-04-21 18:12 | -36.75928 | -63.12445 | 37122 ft | 373 kts | 57° |
| 2026-04-21 18:12 | -36.73274 | -63.06832 | 37115 ft | 373 kts | 56° |
| 2026-04-21 18:13 | -36.70644 | -63.01273 | 37109 ft | 373 kts | 56° |
| 2026-04-21 18:13 | -36.68011 | -62.95723 | 37104 ft | 373 kts | 56° |
| 2026-04-21 18:14 | -36.64066 | -62.87439 | 37102 ft | 372 kts | 55° |
| 2026-04-21 18:15 | -36.61411 | -62.81897 | 37102 ft | 372 kts | 55° |
| 2026-04-21 18:15 | -36.58778 | -62.76409 | 37102 ft | 372 kts | 55° |
| 2026-04-21 18:16 | -36.56126 | -62.70887 | 37103 ft | 371 kts | 55° |
| 2026-04-21 18:16 | -36.53482 | -62.65384 | 37103 ft | 371 kts | 55° |
| 2026-04-21 18:17 | -36.50827 | -62.59863 | 37104 ft | 371 kts | 55° |
| 2026-04-21 18:17 | -36.48178 | -62.54364 | 37104 ft | 372 kts | 55° |
| 2026-04-21 18:18 | -36.45540 | -62.48894 | 37104 ft | 372 kts | 55° |
| 2026-04-21 18:18 | -36.42883 | -62.43395 | 37105 ft | 372 kts | 55° |
| 2026-04-21 18:19 | -36.40220 | -62.37890 | 37105 ft | 372 kts | 55° |
| 2026-04-21 18:19 | -36.37541 | -62.32360 | 37098 ft | 372 kts | 54° |
| 2026-04-21 18:20 | -36.34878 | -62.26873 | 37098 ft | 371 kts | 54° |
| 2026-04-21 18:20 | -36.32219 | -62.21405 | 37098 ft | 371 kts | 54° |
| 2026-04-21 18:21 | -36.29562 | -62.15949 | 37099 ft | 371 kts | 54° |
| 2026-04-21 18:21 | -36.26883 | -62.10456 | 37099 ft | 370 kts | 54° |
| 2026-04-21 18:22 | -36.24233 | -62.05042 | 37100 ft | 370 kts | 54° |
| 2026-04-21 18:22 | -36.21565 | -61.99582 | 37100 ft | 370 kts | 54° |
| 2026-04-21 18:23 | -36.18901 | -61.94144 | 37100 ft | 370 kts | 54° |
| 2026-04-21 18:23 | -36.16221 | -61.88685 | 37101 ft | 371 kts | 54° |
| 2026-04-21 18:24 | -36.13550 | -61.83256 | 37101 ft | 371 kts | 54° |
| 2026-04-21 18:24 | -36.10871 | -61.77810 | 37102 ft | 371 kts | 54° |
| 2026-04-21 18:25 | -36.08202 | -61.72384 | 37102 ft | 371 kts | 54° |
| 2026-04-21 18:25 | -36.05504 | -61.66909 | 37102 ft | 371 kts | 54° |
| 2026-04-21 18:26 | -36.02808 | -61.61446 | 37103 ft | 371 kts | 54° |
| 2026-04-21 18:26 | -36.00136 | -61.56040 | 37103 ft | 371 kts | 54° |
| 2026-04-21 18:27 | -35.97441 | -61.50596 | 37103 ft | 372 kts | 54° |
| 2026-04-21 18:27 | -35.94741 | -61.45141 | 37103 ft | 372 kts | 54° |
| 2026-04-21 18:28 | -35.92058 | -61.39739 | 37098 ft | 372 kts | 54° |
| 2026-04-21 18:28 | -35.89354 | -61.34307 | 37085 ft | 372 kts | 54° |
| 2026-04-21 18:29 | -35.86517 | -61.28577 | 37068 ft | 372 kts | 54° |
| 2026-04-21 18:29 | -35.83847 | -61.23175 | 37056 ft | 372 kts | 54° |
| 2026-04-21 18:30 | -35.81145 | -61.17713 | 37046 ft | 372 kts | 54° |
| 2026-04-21 18:30 | -35.78464 | -61.12297 | 37046 ft | 372 kts | 54° |
| 2026-04-21 18:31 | -35.75774 | -61.06876 | 37047 ft | 371 kts | 54° |
| 2026-04-21 18:31 | -35.73069 | -61.01431 | 37047 ft | 371 kts | 54° |
| 2026-04-21 18:32 | -35.70372 | -60.96014 | 37047 ft | 371 kts | 53° |
| 2026-04-21 18:32 | -35.67658 | -60.90575 | 37048 ft | 371 kts | 53° |
| 2026-04-21 18:33 | -35.64962 | -60.85182 | 37045 ft | 371 kts | 53° |
| 2026-04-21 18:33 | -35.62256 | -60.79777 | 37038 ft | 371 kts | 53° |
| 2026-04-21 18:34 | -35.59549 | -60.74376 | 37027 ft | 371 kts | 53° |
| 2026-04-21 18:34 | -35.56839 | -60.68985 | 37014 ft | 372 kts | 54° |
| 2026-04-21 18:35 | -35.54602 | -60.64518 | 37007 ft | 372 kts | 53° |
| 2026-04-21 18:35 | -35.51419 | -60.58197 | 36935 ft | 374 kts | 53° |
| 2026-04-21 18:35 | -35.50045 | -60.55474 | 36604 ft | 376 kts | 53° |
| 2026-04-21 18:36 | -35.48665 | -60.52741 | 36168 ft | 378 kts | 53° |
| 2026-04-21 18:36 | -35.47290 | -60.50018 | 35809 ft | 377 kts | 54° |
| 2026-04-21 18:36 | -35.45903 | -60.47286 | 35480 ft | 373 kts | 53° |
| 2026-04-21 18:36 | -35.44555 | -60.44605 | 35114 ft | 371 kts | 54° |
| 2026-04-21 18:37 | -35.43206 | -60.41925 | 34723 ft | 369 kts | 54° |
| 2026-04-21 18:37 | -35.41864 | -60.39272 | 34338 ft | 368 kts | 53° |
| 2026-04-21 18:37 | -35.40505 | -60.36594 | 33691 ft | 374 kts | 53° |
| 2026-04-21 18:37 | -35.39087 | -60.33816 | 33050 ft | 378 kts | 53° |
| 2026-04-21 18:38 | -35.37603 | -60.30904 | 32578 ft | 375 kts | 53° |
| 2026-04-21 18:38 | -35.36177 | -60.28101 | 32180 ft | 371 kts | 53° |
| 2026-04-21 18:38 | -35.34864 | -60.25520 | 31797 ft | 368 kts | 54° |
| 2026-04-21 18:38 | -35.33435 | -60.22712 | 31367 ft | 365 kts | 54° |
| 2026-04-21 18:39 | -35.32006 | -60.19907 | 30945 ft | 363 kts | 54° |
| 2026-04-21 18:39 | -35.30579 | -60.17106 | 30536 ft | 361 kts | 54° |
| 2026-04-21 18:39 | -35.29210 | -60.14423 | 30153 ft | 358 kts | 54° |
| 2026-04-21 18:39 | -35.27788 | -60.11636 | 29763 ft | 356 kts | 54° |
| 2026-04-21 18:40 | -35.26409 | -60.08937 | 29392 ft | 354 kts | 54° |
| 2026-04-21 18:40 | -35.25055 | -60.06287 | 29036 ft | 352 kts | 54° |
| 2026-04-21 18:40 | -35.24132 | -60.04482 | 28795 ft | 350 kts | 54° |
| 2026-04-21 18:40 | -35.22308 | -60.00919 | 28329 ft | 348 kts | 54° |
| 2026-04-21 18:41 | -35.21010 | -59.98383 | 28006 ft | 346 kts | 54° |
| 2026-04-21 18:41 | -35.19717 | -59.95864 | 27705 ft | 344 kts | 54° |
| 2026-04-21 18:41 | -35.18420 | -59.93338 | 27406 ft | 342 kts | 54° |
| 2026-04-21 18:41 | -35.17143 | -59.90850 | 27108 ft | 340 kts | 54° |
| 2026-04-21 18:42 | -35.15878 | -59.88388 | 26815 ft | 339 kts | 55° |
| 2026-04-21 18:42 | -35.14599 | -59.85901 | 26526 ft | 337 kts | 54° |
| 2026-04-21 18:42 | -35.13359 | -59.83483 | 26268 ft | 335 kts | 55° |
| 2026-04-21 18:42 | -35.12115 | -59.81066 | 26002 ft | 333 kts | 55° |
| 2026-04-21 18:43 | -35.10874 | -59.78657 | 25738 ft | 332 kts | 55° |
| 2026-04-21 18:43 | -35.09625 | -59.76235 | 25478 ft | 330 kts | 55° |
| 2026-04-21 18:43 | -35.08407 | -59.73877 | 25231 ft | 329 kts | 55° |
| 2026-04-21 18:43 | -35.07167 | -59.71475 | 24989 ft | 328 kts | 55° |
| 2026-04-21 18:44 | -35.05947 | -59.69113 | 24756 ft | 326 kts | 55° |
| 2026-04-21 18:44 | -35.04729 | -59.66758 | 24524 ft | 325 kts | 55° |
| 2026-04-21 18:44 | -35.03504 | -59.64389 | 24300 ft | 324 kts | 55° |
| 2026-04-21 18:44 | -35.02305 | -59.62094 | 24082 ft | 322 kts | 53° |
| 2026-04-21 18:45 | -35.01058 | -59.59792 | 23890 ft | 322 kts | 53° |
| 2026-04-21 18:45 | -34.99809 | -59.57494 | 23755 ft | 320 kts | 53° |
| 2026-04-21 18:45 | -34.98572 | -59.55224 | 23632 ft | 318 kts | 52° |
| 2026-04-21 18:45 | -34.97343 | -59.52973 | 23506 ft | 317 kts | 52° |
| 2026-04-21 18:46 | -34.96111 | -59.50722 | 23384 ft | 315 kts | 52° |
| 2026-04-21 18:46 | -34.94897 | -59.48510 | 23271 ft | 314 kts | 51° |
| 2026-04-21 18:46 | -34.93679 | -59.46292 | 23165 ft | 312 kts | 51° |
| 2026-04-21 18:46 | -34.92485 | -59.44086 | 23065 ft | 310 kts | 51° |
| 2026-04-21 18:47 | -34.91293 | -59.41896 | 22971 ft | 307 kts | 51° |
| 2026-04-21 18:47 | -34.90110 | -59.39741 | 22883 ft | 305 kts | 50° |
| 2026-04-21 18:47 | -34.88898 | -59.37543 | 22805 ft | 302 kts | 50° |
| 2026-04-21 18:47 | -34.87717 | -59.35407 | 22724 ft | 300 kts | 50° |
| 2026-04-21 18:48 | -34.86501 | -59.33218 | 22598 ft | 298 kts | 49° |
| 2026-04-21 18:48 | -34.85319 | -59.31101 | 22455 ft | 298 kts | 49° |
| 2026-04-21 18:48 | -34.84149 | -59.29005 | 22330 ft | 298 kts | 49° |
| 2026-04-21 18:48 | -34.82975 | -59.26898 | 22209 ft | 297 kts | 49° |
| 2026-04-21 18:49 | -34.81805 | -59.24797 | 22084 ft | 296 kts | 49° |
| 2026-04-21 18:49 | -34.80636 | -59.22698 | 21961 ft | 295 kts | 49° |
| 2026-04-21 18:49 | -34.79858 | -59.21301 | 21881 ft | 295 kts | 49° |
| 2026-04-21 18:49 | -34.78302 | -59.18503 | 21739 ft | 294 kts | 49° |
| 2026-04-21 18:50 | -34.77136 | -59.16406 | 21629 ft | 293 kts | 50° |
| 2026-04-21 18:50 | -34.75977 | -59.14324 | 21516 ft | 293 kts | 50° |
| 2026-04-21 18:50 | -34.74826 | -59.12254 | 21408 ft | 292 kts | 50° |
| 2026-04-21 18:50 | -34.73663 | -59.10166 | 21302 ft | 292 kts | 50° |
| 2026-04-21 18:51 | -34.72522 | -59.08117 | 21201 ft | 291 kts | 50° |
| 2026-04-21 18:51 | -34.71372 | -59.06046 | 21102 ft | 290 kts | 50° |
| 2026-04-21 18:51 | -34.70214 | -59.03967 | 21004 ft | 290 kts | 50° |
| 2026-04-21 18:51 | -34.69051 | -59.01881 | 20879 ft | 291 kts | 50° |
| 2026-04-21 18:52 | -34.67881 | -58.99787 | 20723 ft | 293 kts | 50° |
| 2026-04-21 18:52 | -34.66682 | -58.97643 | 20571 ft | 295 kts | 50° |
| 2026-04-21 18:52 | -34.65479 | -58.95494 | 20431 ft | 296 kts | 50° |